createdAt,value
2023-04-28T00:00:18.668Z,7.900
2023-04-28T00:01:17.981Z,8.000
2023-04-28T00:02:18.442Z,8.700
2023-04-28T00:03:19.637Z,9.200
2023-04-28T00:04:18.965Z,8.700
2023-04-28T00:05:19.092Z,8.700
2023-04-28T00:06:18.415Z,8.400
2023-04-28T00:07:18.627Z,8.600
2023-04-28T00:08:18.780Z,8.500
2023-04-28T00:09:17.841Z,9.100
2023-04-28T00:10:17.977Z,8.500
2023-04-28T00:11:18.198Z,8.800
2023-04-28T00:12:18.400Z,8.800
2023-04-28T00:13:18.629Z,8.700
2023-04-28T00:14:18.754Z,9.100
2023-04-28T00:15:18.139Z,8.400
2023-04-28T00:16:18.859Z,8.700
2023-04-28T00:17:18.466Z,7.900
2023-04-28T00:18:19.234Z,8.400
2023-04-28T00:19:18.371Z,8.900
2023-04-28T00:20:18.544Z,8.900
2023-04-28T00:22:17.787Z,8.200
2023-04-28T00:23:17.971Z,9.200
2023-04-28T00:24:18.725Z,8.500
2023-04-28T00:25:17.934Z,8.500
2023-04-28T00:26:18.022Z,9.100
2023-04-28T00:27:18.211Z,8.300
2023-04-28T00:28:33.959Z,8.800
2023-04-28T00:30:21.319Z,8.100
2023-04-28T00:31:21.594Z,8.100
2023-04-28T00:32:22.144Z,8.000
2023-04-28T00:33:21.545Z,8.000
2023-04-28T00:34:21.731Z,8.200
2023-04-28T00:35:20.922Z,8.600
2023-04-28T00:36:21.051Z,8.700
2023-04-28T00:37:21.236Z,9.200
2023-04-28T00:38:21.374Z,8.800
2023-04-28T00:39:21.520Z,8.600
2023-04-28T00:40:21.650Z,8.300
2023-04-28T00:41:20.772Z,7.700
2023-04-28T00:42:20.950Z,8.400
2023-04-28T00:43:21.100Z,8.500
2023-04-28T00:44:21.301Z,8.300
2023-04-28T00:45:21.532Z,8.700
2023-04-28T00:46:22.273Z,8.200
2023-04-28T00:47:21.673Z,8.500
2023-04-28T00:48:20.972Z,8.500
2023-04-28T00:49:21.116Z,9.100
2023-04-28T00:50:21.328Z,8.400
2023-04-28T00:51:21.504Z,8.600
2023-04-28T00:52:21.698Z,8.200
2023-04-28T00:53:20.875Z,8.700
2023-04-28T00:54:21.493Z,8.800
2023-04-28T00:55:21.615Z,8.700
2023-04-28T00:56:21.113Z,8.600
2023-04-28T00:57:21.193Z,8.400
2023-04-28T00:58:21.353Z,8.900
2023-04-28T00:59:21.488Z,8.500
2023-04-28T01:00:21.655Z,8.700
2023-04-28T01:01:21.002Z,8.700
2023-04-28T01:02:21.894Z,8.600
2023-04-28T01:03:21.938Z,8.100
2023-04-28T01:04:23.218Z,8.600
2023-04-28T01:05:21.397Z,8.800
2023-04-28T01:06:21.563Z,9.100
2023-04-28T01:07:22.141Z,9.600
2023-04-28T01:08:21.245Z,8.200
2023-04-28T01:09:21.400Z,9.100
2023-04-28T01:10:21.675Z,8.300
2023-04-28T01:11:20.906Z,8.400
2023-04-28T01:12:21.012Z,9.100
2023-04-28T01:13:21.158Z,8.700
2023-04-28T01:14:21.457Z,8.600
2023-04-28T01:15:21.579Z,9.400
2023-04-28T01:16:21.861Z,8.700
2023-04-28T01:17:20.992Z,8.700
2023-04-28T01:18:21.319Z,8.800
2023-04-28T01:19:21.563Z,9.000
2023-04-28T01:20:21.909Z,8.900
2023-04-28T01:21:21.111Z,9.300
2023-04-28T01:22:21.406Z,7.900
2023-04-28T01:23:21.551Z,8.300
2023-04-28T01:24:22.082Z,8.300
2023-04-28T01:25:21.220Z,8.500
2023-04-28T01:26:21.340Z,9.300
2023-04-28T01:27:21.463Z,9.100
2023-04-28T01:28:21.615Z,8.700
2023-04-28T01:29:21.728Z,9.200
2023-04-28T01:30:20.851Z,8.600
2023-04-28T01:31:21.162Z,8.700
2023-04-28T01:32:21.817Z,9.200
2023-04-28T01:33:21.175Z,8.500
2023-04-28T01:34:21.616Z,9.100
2023-04-28T01:35:21.736Z,9.200
2023-04-28T01:36:20.934Z,10.000
2023-04-28T01:37:21.312Z,8.800
2023-04-28T01:38:21.401Z,8.500
2023-04-28T01:39:21.615Z,9.200
2023-04-28T01:40:21.795Z,8.600
2023-04-28T01:41:20.919Z,8.700
2023-04-28T01:42:21.072Z,8.100
2023-04-28T01:43:21.386Z,8.700
2023-04-28T01:44:21.992Z,8.500
2023-04-28T01:45:21.083Z,9.400
2023-04-28T01:46:21.776Z,9.600
2023-04-28T01:47:20.936Z,8.800
2023-04-28T01:48:21.219Z,9.100
2023-04-28T01:49:21.416Z,9.300
2023-04-28T01:50:21.659Z,9.100
2023-04-28T01:51:20.777Z,9.700
2023-04-28T01:52:21.364Z,8.700
2023-04-28T01:53:21.468Z,8.500
2023-04-28T01:54:21.948Z,9.900
2023-04-28T01:55:21.086Z,9.800
2023-04-28T01:56:21.246Z,9.100
2023-04-28T01:57:24.100Z,8.900
2023-04-28T02:00:20.791Z,9.200
2023-04-28T02:01:21.227Z,9.100
2023-04-28T02:02:22.026Z,8.400
2023-04-28T02:03:21.957Z,8.700
2023-04-28T02:04:22.207Z,9.400
2023-04-28T02:05:21.706Z,9.300
2023-04-28T02:06:20.856Z,9.500
2023-04-28T02:07:21.114Z,10.000
2023-04-28T02:08:21.469Z,9.100
2023-04-28T02:09:21.679Z,8.900
2023-04-28T02:10:20.849Z,8.700
2023-04-28T02:11:21.043Z,9.000
2023-04-28T02:12:21.338Z,9.400
2023-04-28T02:13:21.541Z,9.100
2023-04-28T02:14:21.792Z,9.600
2023-04-28T02:15:20.896Z,9.200
2023-04-28T02:16:21.554Z,8.400
2023-04-28T02:17:21.816Z,9.200
2023-04-28T02:18:21.074Z,9.900
2023-04-28T02:19:21.331Z,9.700
2023-04-28T02:20:21.468Z,9.700
2023-04-28T02:21:21.600Z,9.200
2023-04-28T02:22:21.745Z,8.400
2023-04-28T02:23:20.936Z,9.600
2023-04-28T02:24:21.573Z,9.700
2023-04-28T02:25:21.861Z,9.000
2023-04-28T02:26:21.005Z,9.100
2023-04-28T02:27:21.117Z,9.000
2023-04-28T02:28:21.239Z,9.700
2023-04-28T02:29:21.849Z,9.500
2023-04-28T02:30:20.931Z,9.100
2023-04-28T02:31:21.384Z,8.700
2023-04-28T02:32:21.574Z,8.400
2023-04-28T02:33:21.970Z,8.700
2023-04-28T02:34:21.337Z,9.200
2023-04-28T02:35:21.467Z,9.700
2023-04-28T02:36:21.620Z,10.300
2023-04-28T02:37:20.704Z,9.300
2023-04-28T02:38:20.882Z,9.200
2023-04-28T02:39:21.071Z,8.700
2023-04-28T02:40:21.314Z,8.800
2023-04-28T02:41:21.644Z,9.400
2023-04-28T02:42:20.758Z,8.200
2023-04-28T02:43:21.067Z,8.600
2023-04-28T02:44:21.448Z,8.900
2023-04-28T02:45:21.688Z,9.300
2023-04-28T02:46:20.900Z,9.700
2023-04-28T02:47:21.218Z,9.100
2023-04-28T02:48:21.521Z,9.300
2023-04-28T02:49:21.701Z,9.100
2023-04-28T02:50:20.856Z,9.100
2023-04-28T02:51:21.041Z,9.600
2023-04-28T02:52:21.197Z,9.200
2023-04-28T02:54:21.875Z,8.900
2023-04-28T02:55:21.044Z,8.800
2023-04-28T02:56:21.257Z,8.500
2023-04-28T02:57:21.460Z,9.500
2023-04-28T02:58:21.751Z,9.000
2023-04-28T02:59:21.185Z,8.400
2023-04-28T03:00:21.337Z,9.500
2023-04-28T03:01:21.786Z,9.300
2023-04-28T03:02:21.088Z,9.400
2023-04-28T03:03:22.326Z,9.500
2023-04-28T03:04:23.290Z,9.200
2023-04-28T03:05:21.847Z,10.200
2023-04-28T03:06:20.931Z,10.800
2023-04-28T03:07:21.222Z,10.300
2023-04-28T03:08:21.878Z,9.800
2023-04-28T03:09:21.099Z,9.300
2023-04-28T03:10:21.526Z,9.600
2023-04-28T03:11:21.711Z,8.700
2023-04-28T03:12:20.813Z,8.500
2023-04-28T03:13:20.993Z,9.300
2023-04-28T03:14:21.364Z,9.800
2023-04-28T03:15:21.548Z,9.700
2023-04-28T03:16:21.984Z,9.100
2023-04-28T03:17:21.160Z,9.500
2023-04-28T03:18:21.625Z,9.400
2023-04-28T03:19:20.853Z,9.500
2023-04-28T03:20:20.986Z,9.200
2023-04-28T03:21:21.188Z,9.800
2023-04-28T03:22:21.396Z,9.400
2023-04-28T03:23:21.548Z,8.700
2023-04-28T03:24:24.204Z,9.600
2023-04-28T03:25:21.305Z,10.600
2023-04-28T03:26:21.455Z,10.000
2023-04-28T03:27:21.663Z,9.400
2023-04-28T03:28:20.749Z,9.600
2023-04-28T03:29:20.862Z,10.000
2023-04-28T03:30:21.063Z,9.800
2023-04-28T03:31:21.284Z,9.500
2023-04-28T03:32:21.752Z,8.600
2023-04-28T03:33:20.948Z,11.100
2023-04-28T03:34:21.270Z,8.600
2023-04-28T03:35:21.420Z,9.500
2023-04-28T03:36:21.499Z,9.500
2023-04-28T03:37:21.619Z,9.000
2023-04-28T03:38:21.752Z,9.500
2023-04-28T03:39:21.319Z,10.000
2023-04-28T03:40:21.553Z,8.800
2023-04-28T03:41:21.758Z,9.200
2023-04-28T03:42:20.854Z,8.800
2023-04-28T03:43:23.190Z,9.400
2023-04-28T03:44:21.408Z,9.500
2023-04-28T03:45:21.705Z,9.500
2023-04-28T03:46:21.110Z,9.800
2023-04-28T03:47:21.292Z,10.100
2023-04-28T03:48:21.736Z,9.100
2023-04-28T03:49:20.848Z,8.600
2023-04-28T03:50:21.093Z,9.200
2023-04-28T03:51:21.305Z,10.000
2023-04-28T03:52:21.446Z,9.000
2023-04-28T03:53:21.614Z,9.300
2023-04-28T03:54:21.797Z,9.200
2023-04-28T03:55:20.944Z,9.900
2023-04-28T03:56:21.085Z,9.900
2023-04-28T03:57:21.226Z,9.300
2023-04-28T03:58:21.454Z,10.000
2023-04-28T03:59:21.763Z,9.800
2023-04-28T04:00:20.929Z,8.800
2023-04-28T04:01:21.120Z,9.000
2023-04-28T04:02:21.557Z,9.000
2023-04-28T04:03:21.806Z,9.300
2023-04-28T04:04:23.629Z,9.800
2023-04-28T04:06:21.864Z,9.200
2023-04-28T04:07:20.911Z,9.700
2023-04-28T04:08:21.203Z,9.800
2023-04-28T04:09:21.474Z,9.900
2023-04-28T04:10:23.147Z,8.600
2023-04-28T04:11:21.240Z,10.300
2023-04-28T04:12:21.417Z,9.800
2023-04-28T04:13:21.616Z,9.800
2023-04-28T04:14:22.036Z,9.600
2023-04-28T04:15:21.248Z,10.600
2023-04-28T04:16:21.768Z,10.500
2023-04-28T04:17:21.033Z,9.400
2023-04-28T04:18:21.449Z,8.500
2023-04-28T04:19:21.688Z,9.000
2023-04-28T04:20:20.776Z,9.100
2023-04-28T04:21:20.957Z,8.800
2023-04-28T04:22:21.131Z,10.000
2023-04-28T04:23:21.290Z,8.300
2023-04-28T04:24:21.765Z,9.100
2023-04-28T04:25:23.302Z,9.500
2023-04-28T04:27:20.811Z,9.200
2023-04-28T04:28:21.001Z,9.100
2023-04-28T04:29:21.150Z,10.300
2023-04-28T04:30:21.251Z,9.900
2023-04-28T04:31:21.579Z,10.700
2023-04-28T04:32:21.854Z,10.400
2023-04-28T04:33:21.120Z,9.900
2023-04-28T04:34:21.685Z,9.500
2023-04-28T04:35:20.834Z,9.600
2023-04-28T04:36:20.997Z,8.900
2023-04-28T04:37:21.171Z,9.900
2023-04-28T04:38:21.376Z,9.400
2023-04-28T04:39:21.582Z,9.600
2023-04-28T04:40:21.741Z,10.400
2023-04-28T04:41:20.793Z,9.400
2023-04-28T04:42:30.760Z,10.000
2023-04-28T04:45:21.755Z,9.900
2023-04-28T04:46:21.099Z,10.200
2023-04-28T04:47:21.347Z,10.000
2023-04-28T04:48:21.744Z,10.400
2023-04-28T04:49:20.865Z,10.200
2023-04-28T04:50:21.013Z,10.800
2023-04-28T04:51:21.136Z,9.600
2023-04-28T04:52:21.283Z,10.400
2023-04-28T04:53:21.447Z,10.700
2023-04-28T04:54:21.599Z,11.200
2023-04-28T04:55:21.766Z,11.100
2023-04-28T04:56:20.925Z,10.100
2023-04-28T04:57:21.131Z,11.100
2023-04-28T04:58:21.286Z,11.500
2023-04-28T04:59:21.473Z,11.500
2023-04-28T05:00:21.626Z,11.100
2023-04-28T05:01:20.812Z,11.100
2023-04-28T05:02:21.794Z,10.100
2023-04-28T05:03:21.892Z,12.200
2023-04-28T05:04:23.108Z,11.600
2023-04-28T05:05:32.004Z,11.400
2023-04-28T05:07:21.260Z,10.100
2023-04-28T05:08:21.521Z,10.800
2023-04-28T05:09:21.672Z,10.600
2023-04-28T05:10:20.872Z,11.100
2023-04-28T05:11:21.048Z,11.200
2023-04-28T05:12:21.240Z,10.300
2023-04-28T05:13:23.700Z,10.900
2023-04-28T05:14:21.273Z,10.400
2023-04-28T05:15:21.402Z,10.400
2023-04-28T05:16:21.893Z,11.000
2023-04-28T05:17:21.105Z,10.700
2023-04-28T05:18:21.472Z,10.900
2023-04-28T05:19:21.623Z,10.100
2023-04-28T05:20:20.717Z,10.800
2023-04-28T05:21:20.862Z,9.700
2023-04-28T05:22:20.970Z,10.500
2023-04-28T05:23:21.144Z,10.800
2023-04-28T05:24:21.617Z,9.300
2023-04-28T05:25:22.053Z,10.300
2023-04-28T05:26:21.129Z,10.000
2023-04-28T05:27:21.291Z,10.400
2023-04-28T05:28:23.866Z,10.400
2023-04-28T05:30:21.152Z,10.300
2023-04-28T05:31:21.511Z,10.600
2023-04-28T05:32:22.481Z,10.900
2023-04-28T05:33:22.052Z,10.900
2023-04-28T05:34:21.437Z,10.300
2023-04-28T05:35:21.508Z,10.100
2023-04-28T05:36:21.712Z,9.800
2023-04-28T05:37:20.971Z,9.900
2023-04-28T05:38:23.507Z,10.400
2023-04-28T05:40:20.994Z,10.300
2023-04-28T05:41:21.149Z,11.700
2023-04-28T05:42:21.297Z,11.200
2023-04-28T05:43:21.442Z,12.000
2023-04-28T05:44:21.670Z,11.500
2023-04-28T05:45:20.888Z,11.600
2023-04-28T05:46:32.118Z,11.900
2023-04-28T05:49:20.819Z,12.000
2023-04-28T05:50:21.000Z,10.800
2023-04-28T05:51:21.159Z,10.500
2023-04-28T05:52:21.340Z,10.700
2023-04-28T05:53:21.532Z,10.800
2023-04-28T05:54:22.079Z,10.600
2023-04-28T05:55:21.179Z,11.900
2023-04-28T05:56:21.434Z,11.600
2023-04-28T05:57:21.638Z,10.900
2023-04-28T05:58:20.780Z,12.500
2023-04-28T05:59:21.105Z,18.100
2023-04-28T06:00:21.295Z,17.000
2023-04-28T06:01:21.509Z,11.600
2023-04-28T06:02:28.038Z,10.900
2023-04-28T06:04:24.060Z,12.700
2023-04-28T06:05:23.066Z,12.700
2023-04-28T06:06:27.460Z,12.500
2023-04-28T06:09:22.126Z,11.900
2023-04-28T06:10:21.220Z,11.200
2023-04-28T06:11:21.339Z,12.300
2023-04-28T06:12:21.501Z,12.600
2023-04-28T06:13:21.756Z,12.000
2023-04-28T06:14:21.464Z,12.100
2023-04-28T06:15:21.900Z,11.100
2023-04-28T06:16:21.326Z,10.700
2023-04-28T06:17:22.428Z,11.200
2023-04-28T06:18:21.648Z,11.700
2023-04-28T06:19:20.917Z,11.200
2023-04-28T06:20:21.140Z,11.400
2023-04-28T06:21:21.607Z,11.600
2023-04-28T06:22:20.784Z,10.800
2023-04-28T06:23:21.012Z,11.000
2023-04-28T06:24:21.394Z,10.200
2023-04-28T06:25:21.535Z,11.500
2023-04-28T06:26:21.815Z,10.900
2023-04-28T06:27:21.014Z,11.100
2023-04-28T06:28:21.163Z,10.900
2023-04-28T06:29:21.327Z,11.700
2023-04-28T06:30:21.642Z,11.400
2023-04-28T06:31:20.921Z,11.600
2023-04-28T06:32:21.254Z,10.800
2023-04-28T06:33:21.520Z,10.900
2023-04-28T06:34:21.988Z,10.600
2023-04-28T06:35:21.156Z,11.100
2023-04-28T06:36:21.600Z,10.600
2023-04-28T06:37:20.816Z,11.400
2023-04-28T06:38:21.262Z,11.200
2023-04-28T06:39:21.462Z,11.600
2023-04-28T06:40:21.761Z,11.600
2023-04-28T06:41:20.928Z,10.700
2023-04-28T06:42:21.056Z,10.900
2023-04-28T06:43:21.254Z,11.100
2023-04-28T06:44:22.252Z,10.300
2023-04-28T06:45:21.434Z,10.000
2023-04-28T06:46:21.776Z,11.400
2023-04-28T06:47:21.295Z,10.400
2023-04-28T06:48:22.034Z,11.200
2023-04-28T06:50:21.351Z,11.000
2023-04-28T06:51:21.624Z,10.800
2023-04-28T06:52:36.897Z,10.600
2023-04-28T06:55:23.005Z,10.700
2023-04-28T06:56:22.257Z,10.300
2023-04-28T06:57:22.403Z,11.900
2023-04-28T06:58:22.728Z,14.500
2023-04-28T06:59:21.843Z,13.200
2023-04-28T07:00:22.068Z,17.700
2023-04-28T07:01:22.649Z,19.300
2023-04-28T07:02:22.611Z,16.100
2023-04-28T07:03:22.606Z,15.800
2023-04-28T07:04:24.042Z,15.400
2023-04-28T07:05:22.500Z,16.200
2023-04-28T07:06:22.645Z,15.400
2023-04-28T07:07:21.832Z,13.200
2023-04-28T07:08:22.108Z,14.100
2023-04-28T07:09:22.376Z,12.800
2023-04-28T07:10:22.617Z,11.400
2023-04-28T07:11:22.780Z,11.000
2023-04-28T07:12:21.907Z,11.800
2023-04-28T07:13:22.239Z,12.000
2023-04-28T07:14:22.687Z,11.600
2023-04-28T07:15:21.925Z,11.800
2023-04-28T07:16:22.345Z,10.800
2023-04-28T07:17:22.843Z,11.000
2023-04-28T07:18:22.137Z,10.700
2023-04-28T07:19:22.477Z,12.100
2023-04-28T07:20:22.911Z,12.500
2023-04-28T07:21:24.237Z,12.300
2023-04-28T07:22:22.442Z,11.400
2023-04-28T07:23:22.676Z,11.400
2023-04-28T07:26:22.597Z,10.400
2023-04-28T07:27:22.842Z,11.400
2023-04-28T07:28:21.981Z,11.400
2023-04-28T07:29:22.218Z,11.400
2023-04-28T07:30:32.218Z,11.900
2023-04-28T07:32:26.239Z,12.500
2023-04-28T07:34:22.804Z,10.900
2023-04-28T07:35:22.048Z,12.200
2023-04-28T07:36:22.277Z,11.100
2023-04-28T07:37:23.148Z,11.000
2023-04-28T07:38:22.788Z,11.100
2023-04-28T07:39:21.993Z,11.500
2023-04-28T07:40:22.552Z,12.100
2023-04-28T07:41:28.013Z,11.500
2023-04-28T07:44:22.732Z,12.300
2023-04-28T07:45:21.981Z,11.400
2023-04-28T07:46:22.530Z,13.100
2023-04-28T07:47:23.075Z,11.300
2023-04-28T07:48:22.618Z,11.100
2023-04-28T07:49:21.777Z,11.500
2023-04-28T07:50:22.122Z,11.000
2023-04-28T07:51:22.358Z,13.700
2023-04-28T07:52:22.535Z,12.500
2023-04-28T07:53:22.825Z,12.700
2023-04-28T07:54:22.525Z,14.900
2023-04-28T07:55:22.698Z,12.600
2023-04-28T07:56:21.893Z,11.800
2023-04-28T07:57:22.048Z,12.200
2023-04-28T07:58:22.224Z,11.500
2023-04-28T07:59:22.431Z,12.000
2023-04-28T08:00:22.800Z,13.200
2023-04-28T08:01:21.932Z,12.900
2023-04-28T08:02:22.693Z,12.000
2023-04-28T08:03:23.130Z,13.200
2023-04-28T08:04:24.783Z,13.200
2023-04-28T08:05:23.384Z,12.500
2023-04-28T08:08:22.628Z,11.700
2023-04-28T08:09:21.920Z,12.200
2023-04-28T08:10:22.145Z,11.900
2023-04-28T08:11:22.577Z,11.800
2023-04-28T08:12:22.776Z,11.700
2023-04-28T08:13:22.015Z,11.600
2023-04-28T08:14:22.813Z,12.100
2023-04-28T08:15:22.243Z,12.900
2023-04-28T08:16:22.909Z,12.400
2023-04-28T08:17:22.196Z,12.900
2023-04-28T08:18:22.892Z,15.200
2023-04-28T08:19:22.471Z,18.800
2023-04-28T08:20:26.423Z,25.700
2023-04-28T08:23:22.080Z,13.000
2023-04-28T08:24:22.258Z,17.700
2023-04-28T08:25:22.523Z,13.700
2023-04-28T08:26:22.892Z,14.600
2023-04-28T08:27:22.076Z,13.100
2023-04-28T08:28:22.386Z,14.300
2023-04-28T08:29:22.700Z,14.900
2023-04-28T08:30:22.101Z,15.800
2023-04-28T08:31:22.947Z,14.400
2023-04-28T08:32:22.128Z,13.300
2023-04-28T08:33:24.361Z,13.300
2023-04-28T08:34:22.718Z,13.100
2023-04-28T08:36:22.500Z,14.100
2023-04-28T08:37:22.750Z,13.000
2023-04-28T08:38:24.142Z,14.300
2023-04-28T08:41:21.853Z,13.100
2023-04-28T08:42:22.239Z,11.600
2023-04-28T08:43:22.451Z,13.000
2023-04-28T08:44:22.727Z,12.700
2023-04-28T08:45:22.196Z,12.600
2023-04-28T08:46:22.588Z,13.300
2023-04-28T08:47:21.922Z,11.800
2023-04-28T08:48:22.575Z,12.400
2023-04-28T08:49:21.977Z,12.500
2023-04-28T08:50:22.175Z,11.800
2023-04-28T08:51:22.443Z,12.600
2023-04-28T08:52:22.650Z,13.300
2023-04-28T08:53:21.796Z,13.800
2023-04-28T08:58:23.190Z,12.600
2023-04-28T08:59:23.471Z,12.900
2023-04-28T09:00:23.800Z,12.200
2023-04-28T09:01:23.075Z,12.700
2023-04-28T09:02:23.903Z,11.500
2023-04-28T09:03:23.955Z,12.100
2023-04-28T09:05:25.726Z,12.300
2023-04-28T09:06:23.197Z,11.700
2023-04-28T09:07:23.421Z,12.800
2023-04-28T09:08:23.868Z,13.100
2023-04-28T09:09:23.119Z,11.900
2023-04-28T09:10:23.577Z,12.500
2023-04-28T09:11:23.845Z,12.900
2023-04-28T09:12:22.978Z,13.700
2023-04-28T09:13:23.223Z,12.600
2023-04-28T09:14:23.509Z,12.600
2023-04-28T09:15:23.836Z,13.300
2023-04-28T09:16:23.141Z,13.500
2023-04-28T09:17:23.545Z,14.000
2023-04-28T09:18:24.126Z,15.700
2023-04-28T09:19:23.273Z,16.500
2023-04-28T09:20:23.494Z,17.200
2023-04-28T09:21:23.694Z,17.300
2023-04-28T09:22:32.870Z,13.800
2023-04-28T09:25:23.454Z,12.100
2023-04-28T09:26:23.752Z,14.200
2023-04-28T09:27:22.981Z,13.900
2023-04-28T09:28:23.244Z,13.300
2023-04-28T09:29:23.583Z,14.500
2023-04-28T09:30:23.854Z,12.800
2023-04-28T09:31:23.314Z,12.300
2023-04-28T09:32:24.911Z,13.000
2023-04-28T09:33:26.158Z,12.100
2023-04-28T09:34:24.391Z,13.000
2023-04-28T09:36:23.761Z,13.600
2023-04-28T09:37:22.946Z,11.200
2023-04-28T09:38:23.405Z,13.200
2023-04-28T09:39:23.740Z,12.400
2023-04-28T09:40:23.028Z,12.300
2023-04-28T09:41:23.226Z,12.900
2023-04-28T09:42:23.559Z,12.700
2023-04-28T09:43:33.551Z,13.400
2023-04-28T09:46:23.868Z,13.900
2023-04-28T09:47:23.075Z,13.400
2023-04-28T09:48:23.340Z,14.100
2023-04-28T09:49:23.463Z,13.800
2023-04-28T09:50:24.050Z,13.200
2023-04-28T09:51:23.367Z,12.400
2023-04-28T09:52:23.511Z,12.500
2023-04-28T09:53:23.731Z,13.600
2023-04-28T09:54:22.998Z,13.200
2023-04-28T09:55:23.213Z,12.100
2023-04-28T09:56:23.372Z,13.500
2023-04-28T09:57:24.334Z,14.100
2023-04-28T09:58:23.527Z,13.500
2023-04-28T09:59:23.713Z,12.800
2023-04-28T10:00:22.890Z,13.500
2023-04-28T10:01:23.310Z,13.200
2023-04-28T10:04:30.698Z,14.100
2023-04-28T10:05:30.069Z,13.800
2023-04-28T10:06:29.372Z,12.800
2023-04-28T10:07:29.576Z,13.100
2023-04-28T10:08:29.902Z,12.000
2023-04-28T10:09:29.166Z,12.000
2023-04-28T10:10:29.353Z,12.300
2023-04-28T10:11:29.877Z,12.400
2023-04-28T10:12:29.122Z,13.400
2023-04-28T10:13:29.386Z,12.800
2023-04-28T10:14:29.663Z,13.000
2023-04-28T10:15:28.992Z,13.000
2023-04-28T10:16:29.713Z,14.600
2023-04-28T10:17:29.063Z,13.200
2023-04-28T10:18:29.419Z,13.000
2023-04-28T10:19:29.629Z,11.900
2023-04-28T10:20:28.923Z,12.800
2023-04-28T10:21:29.194Z,13.900
2023-04-28T10:22:29.461Z,12.900
2023-04-28T10:23:29.750Z,13.100
2023-04-28T10:24:29.039Z,14.100
2023-04-28T10:25:29.296Z,14.000
2023-04-28T10:26:29.493Z,13.700
2023-04-28T10:27:29.728Z,14.100
2023-04-28T10:28:29.015Z,14.300
2023-04-28T10:29:29.474Z,15.000
2023-04-28T10:32:29.332Z,14.900
2023-04-28T10:33:31.113Z,14.700
2023-04-28T10:34:31.471Z,13.500
2023-04-28T10:36:37.962Z,14.500
2023-04-28T10:39:29.512Z,14.700
2023-04-28T10:40:29.831Z,15.900
2023-04-28T10:41:28.994Z,14.100
2023-04-28T10:42:29.185Z,14.400
2023-04-28T10:43:30.253Z,13.500
2023-04-28T10:44:29.583Z,14.400
2023-04-28T10:49:29.779Z,14.800
2023-04-28T10:50:39.371Z,15.400
2023-04-28T10:52:29.828Z,15.100
2023-04-28T10:53:29.680Z,15.700
2023-04-28T10:54:28.853Z,15.900
2023-04-28T10:55:38.857Z,15.900
2023-04-28T10:58:29.628Z,13.700
2023-04-28T10:59:28.714Z,14.400
2023-04-28T11:00:29.083Z,14.400
2023-04-28T11:01:30.055Z,16.000
2023-04-28T11:02:29.926Z,15.800
2023-04-28T11:03:31.080Z,14.200
2023-04-28T11:05:29.939Z,14.800
2023-04-28T11:06:29.113Z,13.200
2023-04-28T11:07:29.311Z,15.000
2023-04-28T11:08:30.050Z,14.100
2023-04-28T11:09:30.377Z,14.500
2023-04-28T11:10:29.604Z,14.100
2023-04-28T11:11:29.807Z,13.300
2023-04-28T11:12:28.987Z,13.200
2023-04-28T11:13:30.218Z,14.500
2023-04-28T11:15:29.011Z,14.200
2023-04-28T11:16:29.417Z,14.100
2023-04-28T11:17:30.321Z,14.100
2023-04-28T11:18:29.704Z,13.800
2023-04-28T11:19:29.555Z,14.600
2023-04-28T11:20:29.857Z,14.000
2023-04-28T11:21:28.981Z,14.000
2023-04-28T11:22:29.199Z,14.300
2023-04-28T11:23:30.224Z,14.900
2023-04-28T11:24:29.507Z,15.200
2023-04-28T11:25:30.143Z,14.500
2023-04-28T11:26:29.262Z,14.200
2023-04-28T11:27:29.517Z,15.100
2023-04-28T11:28:29.683Z,15.500
2023-04-28T11:29:28.884Z,14.200
2023-04-28T11:30:29.097Z,14.400
2023-04-28T11:31:29.613Z,14.100
2023-04-28T11:32:29.281Z,13.600
2023-04-28T11:33:29.637Z,13.900
2023-04-28T11:34:28.803Z,14.300
2023-04-28T11:35:28.934Z,15.100
2023-04-28T11:36:29.118Z,14.800
2023-04-28T11:37:30.800Z,14.100
2023-04-28T11:38:28.943Z,15.700
2023-04-28T11:39:29.106Z,17.100
2023-04-28T11:40:29.319Z,14.300
2023-04-28T11:41:29.565Z,14.100
2023-04-28T11:42:29.774Z,13.900
2023-04-28T11:43:46.788Z,14.200
2023-04-28T11:45:32.086Z,13.700
2023-04-28T11:46:32.507Z,13.700
2023-04-28T11:47:33.037Z,13.800
2023-04-28T11:48:32.276Z,14.900
2023-04-28T11:49:32.545Z,13.900
2023-04-28T11:50:32.676Z,13.800
2023-04-28T11:51:31.844Z,12.600
2023-04-28T11:52:32.031Z,13.200
2023-04-28T11:53:32.313Z,13.500
2023-04-28T11:54:32.432Z,12.600
2023-04-28T11:55:32.667Z,12.500
2023-04-28T11:56:31.870Z,12.800
2023-04-28T11:57:32.547Z,12.300
2023-04-28T11:58:32.772Z,12.800
2023-04-28T11:59:31.899Z,13.000
2023-04-28T12:00:32.424Z,13.400
2023-04-28T12:01:32.704Z,14.100
2023-04-28T12:02:33.060Z,12.800
2023-04-28T12:03:33.184Z,14.000
2023-04-28T12:05:32.362Z,12.800
2023-04-28T12:06:32.687Z,12.200
2023-04-28T12:07:31.881Z,13.600
2023-04-28T12:08:32.117Z,12.500
2023-04-28T12:09:32.384Z,12.800
2023-04-28T12:10:32.872Z,12.500
2023-04-28T12:11:32.069Z,14.100
2023-04-28T12:14:33.984Z,13.200
2023-04-28T12:15:37.494Z,12.700
2023-04-28T12:16:34.956Z,13.900
2023-04-28T12:18:34.557Z,13.800
2023-04-28T12:19:33.865Z,12.700
2023-04-28T12:20:34.123Z,12.700
2023-04-28T12:21:34.291Z,13.200
2023-04-28T12:22:34.904Z,13.000
2023-04-28T12:23:34.109Z,12.800
2023-04-28T12:24:34.318Z,13.100
2023-04-28T12:25:34.487Z,13.000
2023-04-28T12:26:34.697Z,12.200
2023-04-28T12:27:33.964Z,12.700
2023-04-28T12:28:34.176Z,12.500
2023-04-28T12:29:34.420Z,12.100
2023-04-28T12:30:34.639Z,12.100
2023-04-28T12:31:34.906Z,11.800
2023-04-28T12:32:34.133Z,12.400
2023-04-28T12:33:34.384Z,11.300
2023-04-28T12:34:34.823Z,12.300
2023-04-28T12:35:34.080Z,12.000
2023-04-28T12:36:34.381Z,12.300
2023-04-28T12:37:34.599Z,12.100
2023-04-28T12:38:35.694Z,11.800
2023-04-28T12:39:34.055Z,11.700
2023-04-28T12:40:34.306Z,12.200
2023-04-28T12:41:34.767Z,13.100
2023-04-28T12:43:34.133Z,12.800
2023-04-28T12:44:34.332Z,12.400
2023-04-28T12:45:35.293Z,12.200
2023-04-28T12:46:35.018Z,12.800
2023-04-28T12:47:34.403Z,12.800
2023-04-28T12:48:34.672Z,12.800
2023-04-28T12:49:33.832Z,11.800
2023-04-28T12:50:34.153Z,13.200
2023-04-28T12:51:34.384Z,13.800
2023-04-28T12:52:34.696Z,13.800
2023-04-28T12:53:33.931Z,13.000
2023-04-28T12:54:34.187Z,13.000
2023-04-28T12:55:34.485Z,12.800
2023-04-28T12:56:34.777Z,13.000
2023-04-28T12:57:33.936Z,11.600
2023-04-28T12:58:34.104Z,12.500
2023-04-28T12:59:34.546Z,12.600
2023-04-28T13:00:34.877Z,12.700
2023-04-28T13:01:34.230Z,12.400
2023-04-28T13:03:35.572Z,12.200
2023-04-28T13:04:35.012Z,12.400
2023-04-28T13:05:34.580Z,12.200
2023-04-28T13:06:34.759Z,12.700
2023-04-28T13:08:34.030Z,13.000
2023-04-28T13:09:34.234Z,12.600
2023-04-28T13:10:34.785Z,12.400
2023-04-28T13:11:38.840Z,12.300
2023-04-28T13:13:34.206Z,11.700
2023-04-28T13:14:34.531Z,12.800
2023-04-28T13:15:35.806Z,12.200
2023-04-28T13:16:34.171Z,12.400
2023-04-28T13:17:34.576Z,12.100
2023-04-28T13:18:34.786Z,12.300
2023-04-28T13:19:33.981Z,11.400
2023-04-28T13:20:34.140Z,11.600
2023-04-28T13:21:34.406Z,12.300
2023-04-28T13:22:34.866Z,12.600
2023-04-28T13:23:34.029Z,12.400
2023-04-28T13:24:34.297Z,12.000
2023-04-28T13:25:34.637Z,12.800
2023-04-28T13:26:33.907Z,11.800
2023-04-28T13:27:34.168Z,12.400
2023-04-28T13:28:34.572Z,11.300
2023-04-28T13:29:34.787Z,12.000
2023-04-28T13:30:34.032Z,12.100
2023-04-28T13:31:34.558Z,12.100
2023-04-28T13:32:34.905Z,13.100
2023-04-28T13:33:34.192Z,12.200
2023-04-28T13:34:34.955Z,11.700
2023-04-28T13:35:34.099Z,13.100
2023-04-28T13:36:34.288Z,11.800
2023-04-28T13:37:34.521Z,11.900
2023-04-28T13:38:34.703Z,11.600
2023-04-28T13:39:33.836Z,11.400
2023-04-28T13:40:34.043Z,12.000
2023-04-28T13:41:34.210Z,11.700
2023-04-28T13:42:34.504Z,11.200
2023-04-28T13:43:34.866Z,11.100
2023-04-28T13:44:34.076Z,11.400